Diane G — DIANEG — position and weather

sailwx.info

Track history (hours):
 
Tides and Currents Weather Stations Pressure Air Temp Water Temp Dewpoint Dewpoint Depression Visibility Wind Speed Wind Dir Waves Ship Positions

Diane G

Last reported at 2014-Oct-25 10:29 UTC. Time now 2014-Oct-25 11:18 UTC.
Position N 34°06' W 119°13'.

Length 35 m; draft 2.5 m.

Type: Military. MMSI: 369970281.

Date/timePositionNaut miles runAvg speedWind from/ knotsBaromVisibWave heightAir tempDewpointWater temp
2014-Oct-25 10:29N 34°06' W 119°13'17 8.9
2014-Oct-25 08:34N 33°53' W 118°60'11 9.3
2014-Oct-25 07:24N 33°46' W 118°50'8 9.3
2014-Oct-25 06:33N 33°41' W 118°43'10 9.2
2014-Oct-25 05:30N 33°35' W 118°34'9 9.1
2014-Oct-25 04:33N 33°29' W 118°26'9 9.2
2014-Oct-25 03:33N 33°23' W 118°18'8 7.7
2014-Oct-25 02:33N 33°17' W 118°12'3 2.9
2014-Oct-25 01:33N 33°15' W 118°09'52 6.4
2014-Oct-24 17:26N 32°40' W 117°23'6 6.8
2014-Oct-24 16:33N 32°38' W 117°17'6 6.4
2014-Oct-24 15:34N 32°43' W 117°13'2 2.1
2014-Oct-24 14:34N 32°43' W 117°10'0 0.0
2014-Oct-24 13:34N 32°43' W 117°10'1 1.1
2014-Oct-24 12:31N 32°43' W 117°11'0 0.0
2014-Oct-24 11:31N 32°43' W 117°11'0 0.0
2014-Oct-24 10:31N 32°43' W 117°11'0 0.0
2014-Oct-24 09:28N 32°43' W 117°11'0 0.0
2014-Oct-24 08:31N 32°43' W 117°11'0 0.0
2014-Oct-24 07:31N 32°43' W 117°11'0 0.0
2014-Oct-24 06:31N 32°43' W 117°11'0 0.0
2014-Oct-24 05:31N 32°43' W 117°11'0 0.0
2014-Oct-24 04:31N 32°43' W 117°11'0 0.0
2014-Oct-24 03:31N 32°43' W 117°11'0 0.0
2014-Oct-24 02:31N 32°43' W 117°11'0 0.0
2014-Oct-24 01:31N 32°43' W 117°11'9 1.2
2014-Oct-23 18:33N 32°37' W 117°18'1 1.2
2014-Oct-23 17:34N 32°38' W 117°19'1 1.0
2014-Oct-23 16:33N 32°38' W 117°19'2 1.5
2014-Oct-23 15:34N 32°37' W 117°18'4 3.7
2014-Oct-23 14:34N 32°38' W 117°14'6 5.6
2014-Oct-23 13:33N 32°43' W 117°12'1 0.5
2014-Oct-23 12:32N 32°43' W 117°11'0 0.0
2014-Oct-23 11:32N 32°43' W 117°11'0 0.0
2014-Oct-23 10:32N 32°43' W 117°11'0 0.0
2014-Oct-23 09:32N 32°43' W 117°11'0 0.0
2014-Oct-23 08:20N 32°43' W 117°11'0 0.0
2014-Oct-23 07:32N 32°43' W 117°11'0 0.1
2014-Oct-23 06:32N 32°43' W 117°11'0 0.1
2014-Oct-23 05:32N 32°43' W 117°11'0 0.0
2014-Oct-23 04:32N 32°43' W 117°11'0 0.0
2014-Oct-23 03:32N 32°43' W 117°11'0 0.0
2014-Oct-23 02:32N 32°43' W 117°11'0 0.0
2014-Oct-23 01:32N 32°43' W 117°11'0 0.0
2014-Oct-23 00:32N 32°43' W 117°11'0 0.0
2014-Oct-22 23:32N 32°43' W 117°11'0 0.0
2014-Oct-22 22:32N 32°43' W 117°11'0 0.0
2014-Oct-22 21:32N 32°43' W 117°11'0 0.0
2014-Oct-22 20:32N 32°43' W 117°11'0 0.0
2014-Oct-22 19:29N 32°43' W 117°11'0 0.0
2014-Oct-22 18:33N 32°43' W 117°11'0 0.0
2014-Oct-22 17:34N 32°43' W 117°11'0 0.0
2014-Oct-22 16:33N 32°43' W 117°11'0 0.0
2014-Oct-22 15:33N 32°43' W 117°11'0 0.0
2014-Oct-22 14:33N 32°43' W 117°11'0 0.0
2014-Oct-22 13:33N 32°43' W 117°11'0 0.0
2014-Oct-22 12:33N 32°43' W 117°11'0 0.0
2014-Oct-22 11:33N 32°43' W 117°11'0 0.0
2014-Oct-22 10:33N 32°43' W 117°11'0 0.0
2014-Oct-22 09:33N 32°43' W 117°11'0 0.0
2014-Oct-22 08:34N 32°43' W 117°11'0 0.0
2014-Oct-22 07:33N 32°43' W 117°11'0 0.0
2014-Oct-22 06:33N 32°43' W 117°11'0 0.0
2014-Oct-22 05:33N 32°43' W 117°11'0 0.0
2014-Oct-22 04:33N 32°43' W 117°11'0 0.0
2014-Oct-22 03:33N 32°43' W 117°11'2 2.3
2014-Oct-22 02:33N 32°42' W 117°14'7 6.8
2014-Oct-22 01:32N 32°36' W 117°17'1 1.2
2014-Oct-22 00:34N 32°36' W 117°18'1 1.3
2014-Oct-21 23:33N 32°37' W 117°19'0 0.2
2014-Oct-21 22:33N 32°37' W 117°19'2 2.3
2014-Oct-21 21:28N 32°36' W 117°16'2 2.4
2014-Oct-21 20:32N 32°35' W 117°14'0 0.0
2014-Oct-21 19:33N 32°35' W 117°14'0 0.0
2014-Oct-21 17:29N 32°35' W 117°14'0 0.1
2014-Oct-21 16:32N 32°35' W 117°14'7 6.8
2014-Oct-21 15:33N 32°35' W 117°22'7 6.1
2014-Oct-21 14:23N 32°36' W 117°14'7 8.2
2014-Oct-21 13:33N 32°43' W 117°13'1 1.2
2014-Oct-21 12:32N 32°43' W 117°11'0 0.0
2014-Oct-21 11:32N 32°43' W 117°11'0 0.0
2014-Oct-21 10:32N 32°43' W 117°11'0 0.0
2014-Oct-21 09:32N 32°43' W 117°11'0 0.0
2014-Oct-21 08:32N 32°43' W 117°11'0 0.0
2014-Oct-21 07:32N 32°43' W 117°11'0 0.0
2014-Oct-21 06:29N 32°43' W 117°11'0 0.0
2014-Oct-21 05:32N 32°43' W 117°11'0 0.0
2014-Oct-21 04:32N 32°43' W 117°11'0 0.0
2014-Oct-21 03:32N 32°43' W 117°11'0 0.0
2014-Oct-21 02:32N 32°43' W 117°11'0 0.0
2014-Oct-21 01:32N 32°43' W 117°11'3 3.4
2014-Oct-21 00:33N 32°41' W 117°14'6 2.7
2014-Oct-20 22:23N 32°35' W 117°14'0 0.0
2014-Oct-20 18:31N 32°35' W 117°14'0 0.0
2014-Oct-20 17:29N 32°35' W 117°14'0 0.3
2014-Oct-20 16:31N 32°35' W 117°14'8 7.8
2014-Oct-20 15:27N 32°30' W 117°23'1 1.2
2014-Oct-20 14:31N 32°30' W 117°24'0 0.4
2014-Oct-20 13:33N 32°30' W 117°24'1 0.5
2014-Oct-20 12:33N 32°31' W 117°24'0 0.5
2014-Oct-20 11:33N 32°31' W 117°25'1 0.5
2014-Oct-20 10:33N 32°32' W 117°25'1 0.5
2014-Oct-20 09:33N 32°32' W 117°25'1 0.5
2014-Oct-20 08:33N 32°33' W 117°25'0 0.5
2014-Oct-20 07:33N 32°33' W 117°26'1 0.6
2014-Oct-20 06:34N 32°34' W 117°26'1 0.7
2014-Oct-20 05:33N 32°34' W 117°26'1 0.8
2014-Oct-20 04:33N 32°35' W 117°27'1 0.7
2014-Oct-20 03:33N 32°36' W 117°27'1 0.8
2014-Oct-20 02:33N 32°36' W 117°28'0 0.5
2014-Oct-20 01:33N 32°37' W 117°28'10 6.7
2014-Oct-20 00:04N 32°32' W 117°18'1 1.2
2014-Oct-19 23:32N 32°33' W 117°18'1 1.1
2014-Oct-19 22:33N 32°34' W 117°19'1 1.1
2014-Oct-19 21:33N 32°34' W 117°20'1 0.8
2014-Oct-19 20:33N 32°34' W 117°21'0 0.4
2014-Oct-19 19:33N 32°34' W 117°22'0 0.5
2014-Oct-19 18:33N 32°35' W 117°22'6 5.7
2014-Oct-19 17:33N 32°37' W 117°16'4 4.0
2014-Oct-19 16:33N 32°38' W 117°11'0 0.0
2014-Oct-19 15:27N 32°38' W 117°11'0 0.0
2014-Oct-19 14:33N 32°38' W 117°11'0 0.0
2014-Oct-19 13:33N 32°38' W 117°11'0 0.0
2014-Oct-19 12:33N 32°38' W 117°11'0 0.0
2014-Oct-19 11:33N 32°38' W 117°11'0 0.0
2014-Oct-19 10:33N 32°38' W 117°11'0 0.0
2014-Oct-19 09:33N 32°38' W 117°11'0 0.0
2014-Oct-19 08:33N 32°38' W 117°11'6 6.0
2014-Oct-19 07:33N 32°35' W 117°17'7 7.2
2014-Oct-19 06:33N 32°34' W 117°26'6 6.0
2014-Oct-19 05:33N 32°29' W 117°22'1 1.2
2014-Oct-19 04:32N 32°30' W 117°22'1 1.2
2014-Oct-19 03:30N 32°31' W 117°22'1 1.3
2014-Oct-19 02:30N 32°32' W 117°23'1 1.4
2014-Oct-19 01:33N 32°34' W 117°23'1 1.2
2014-Oct-19 00:33N 32°35' W 117°24'1 1.1
2014-Oct-18 23:33N 32°36' W 117°24'1 1.1
2014-Oct-18 22:33N 32°37' W 117°25'1 1.1
2014-Oct-18 21:33N 32°38' W 117°25'1 1.0
2014-Oct-18 20:33N 32°38' W 117°26'1 0.9
2014-Oct-18 19:33N 32°39' W 117°27'1 1.1
2014-Oct-18 18:33N 32°38' W 117°26'7 7.3
2014-Oct-18 17:32N 32°32' W 117°21'1 0.7
2014-Oct-18 16:30N 32°33' W 117°21'1 0.9
2014-Oct-18 15:33N 32°34' W 117°21'3 2.6
2014-Oct-18 14:33N 32°36' W 117°19'8 7.8
2014-Oct-18 13:33N 32°42' W 117°14'2 2.4
2014-Oct-18 12:33N 32°43' W 117°11'0 0.0
2014-Oct-18 11:33N 32°43' W 117°11'0 0.0
2014-Oct-18 10:33N 32°43' W 117°11'0 0.0
2014-Oct-18 09:33N 32°43' W 117°11'0 0.0
2014-Oct-18 08:33N 32°43' W 117°11'0 0.0
2014-Oct-18 07:33N 32°43' W 117°11'0 0.0
2014-Oct-18 06:33N 32°43' W 117°11'0 0.0
2014-Oct-18 05:33N 32°43' W 117°11'0 0.0
2014-Oct-18 04:33N 32°43' W 117°11'0 0.0
2014-Oct-18 03:33N 32°43' W 117°11'5 4.9
2014-Oct-18 02:33N 32°39' W 117°13'9 8.5
2014-Oct-18 01:31N 32°32' W 117°20'2 2.3
2014-Oct-18 00:29N 32°32' W 117°23'1 1.1
2014-Oct-17 23:33N 32°33' W 117°23'1 1.0
2014-Oct-17 22:33N 32°34' W 117°23'1 0.9
2014-Oct-17 21:33N 32°34' W 117°24'1 0.9
2014-Oct-17 20:33N 32°35' W 117°24'1 0.7
2014-Oct-17 19:33N 32°36' W 117°25'1 0.6
2014-Oct-17 18:33N 32°36' W 117°25'1 0.5
2014-Oct-17 17:33N 32°37' W 117°25'1 0.6
2014-Oct-17 16:33N 32°37' W 117°26'0 0.4
2014-Oct-17 15:33N 32°37' W 117°26'0 0.3
2014-Oct-17 14:33N 32°38' W 117°27'0 0.3
2014-Oct-17 13:33N 32°38' W 117°27'0 0.3
2014-Oct-17 12:33N 32°38' W 117°27'0 0.4
2014-Oct-17 11:33N 32°39' W 117°27'0 0.4
2014-Oct-17 10:33N 32°39' W 117°27'1 0.5
2014-Oct-17 09:33N 32°40' W 117°27'1 0.5
2014-Oct-17 08:33N 32°40' W 117°28'1 0.5
2014-Oct-17 07:33N 32°40' W 117°28'1 0.6
2014-Oct-17 06:33N 32°41' W 117°28'3 2.6
2014-Oct-17 05:33N 32°38' W 117°29'9 8.8
2014-Oct-17 04:31N 32°31' W 117°23'1 1.1
2014-Oct-17 03:33N 32°32' W 117°23'1 1.2
2014-Oct-17 02:33N 32°33' W 117°23'2 2.3
2014-Oct-17 01:29N 32°34' W 117°21'7 7.4
2014-Oct-17 00:33N 32°38' W 117°14'5 0.5
2014-Oct-16 14:18N 32°43' W 117°10'0 0.0
2014-Oct-15 21:27N 32°43' W 117°10'0 0.0
2014-Oct-15 20:33N 32°43' W 117°10'2 2.5
2014-Oct-15 19:33N 32°41' W 117°08'  
Track history (hours):
 
Tides and Currents Weather Stations Pressure Air Temp Water Temp Dewpoint Dewpoint Depression Visibility Wind Speed Wind Dir Waves Ship Positions

Diane G

Last reported at 2014-Oct-25 10:29 UTC. Time now 2014-Oct-25 11:18 UTC.
Position N 34°06' W 119°13'.

Length 35 m; draft 2.5 m.

Type: Military. MMSI: 369970281.

Date/timePositionNaut miles runAvg speedWind from/ knotsBaromVisibWave heightAir tempDewpointWater temp
2014-Oct-25 10:29N 34°06' W 119°13'17 8.9
2014-Oct-25 08:34N 33°53' W 118°60'11 9.3
2014-Oct-25 07:24N 33°46' W 118°50'8 9.3
2014-Oct-25 06:33N 33°41' W 118°43'10 9.2
2014-Oct-25 05:30N 33°35' W 118°34'9 9.1
2014-Oct-25 04:33N 33°29' W 118°26'9 9.2
2014-Oct-25 03:33N 33°23' W 118°18'8 7.7
2014-Oct-25 02:33N 33°17' W 118°12'3 2.9
2014-Oct-25 01:33N 33°15' W 118°09'52 6.4
2014-Oct-24 17:26N 32°40' W 117°23'6 6.8
2014-Oct-24 16:33N 32°38' W 117°17'6 6.4
2014-Oct-24 15:34N 32°43' W 117°13'2 2.1
2014-Oct-24 14:34N 32°43' W 117°10'0 0.0
2014-Oct-24 13:34N 32°43' W 117°10'1 1.1
2014-Oct-24 12:31N 32°43' W 117°11'0 0.0
2014-Oct-24 11:31N 32°43' W 117°11'0 0.0
2014-Oct-24 10:31N 32°43' W 117°11'0 0.0
2014-Oct-24 09:28N 32°43' W 117°11'0 0.0
2014-Oct-24 08:31N 32°43' W 117°11'0 0.0
2014-Oct-24 07:31N 32°43' W 117°11'0 0.0
2014-Oct-24 06:31N 32°43' W 117°11'0 0.0
2014-Oct-24 05:31N 32°43' W 117°11'0 0.0
2014-Oct-24 04:31N 32°43' W 117°11'0 0.0
2014-Oct-24 03:31N 32°43' W 117°11'0 0.0
2014-Oct-24 02:31N 32°43' W 117°11'0 0.0
2014-Oct-24 01:31N 32°43' W 117°11'9 1.2
2014-Oct-23 18:33N 32°37' W 117°18'1 1.2
2014-Oct-23 17:34N 32°38' W 117°19'1 1.0
2014-Oct-23 16:33N 32°38' W 117°19'2 1.5
2014-Oct-23 15:34N 32°37' W 117°18'4 3.7
2014-Oct-23 14:34N 32°38' W 117°14'6 5.6
2014-Oct-23 13:33N 32°43' W 117°12'1 0.5
2014-Oct-23 12:32N 32°43' W 117°11'0 0.0
2014-Oct-23 11:32N 32°43' W 117°11'0 0.0
2014-Oct-23 10:32N 32°43' W 117°11'0 0.0
2014-Oct-23 09:32N 32°43' W 117°11'0 0.0
2014-Oct-23 08:20N 32°43' W 117°11'0 0.0
2014-Oct-23 07:32N 32°43' W 117°11'0 0.1
2014-Oct-23 06:32N 32°43' W 117°11'0 0.1
2014-Oct-23 05:32N 32°43' W 117°11'0 0.0
2014-Oct-23 04:32N 32°43' W 117°11'0 0.0
2014-Oct-23 03:32N 32°43' W 117°11'0 0.0
2014-Oct-23 02:32N 32°43' W 117°11'0 0.0
2014-Oct-23 01:32N 32°43' W 117°11'0 0.0
2014-Oct-23 00:32N 32°43' W 117°11'0 0.0
2014-Oct-22 23:32N 32°43' W 117°11'0 0.0
2014-Oct-22 22:32N 32°43' W 117°11'0 0.0
2014-Oct-22 21:32N 32°43' W 117°11'0 0.0
2014-Oct-22 20:32N 32°43' W 117°11'0 0.0
2014-Oct-22 19:29N 32°43' W 117°11'0 0.0
2014-Oct-22 18:33N 32°43' W 117°11'0 0.0
2014-Oct-22 17:34N 32°43' W 117°11'0 0.0
2014-Oct-22 16:33N 32°43' W 117°11'0 0.0
2014-Oct-22 15:33N 32°43' W 117°11'0 0.0
2014-Oct-22 14:33N 32°43' W 117°11'0 0.0
2014-Oct-22 13:33N 32°43' W 117°11'0 0.0
2014-Oct-22 12:33N 32°43' W 117°11'0 0.0
2014-Oct-22 11:33N 32°43' W 117°11'0 0.0
2014-Oct-22 10:33N 32°43' W 117°11'0 0.0
2014-Oct-22 09:33N 32°43' W 117°11'0 0.0
2014-Oct-22 08:34N 32°43' W 117°11'0 0.0
2014-Oct-22 07:33N 32°43' W 117°11'0 0.0
2014-Oct-22 06:33N 32°43' W 117°11'0 0.0
2014-Oct-22 05:33N 32°43' W 117°11'0 0.0
2014-Oct-22 04:33N 32°43' W 117°11'0 0.0
2014-Oct-22 03:33N 32°43' W 117°11'2 2.3
2014-Oct-22 02:33N 32°42' W 117°14'7 6.8
2014-Oct-22 01:32N 32°36' W 117°17'1 1.2
2014-Oct-22 00:34N 32°36' W 117°18'1 1.3
2014-Oct-21 23:33N 32°37' W 117°19'0 0.2
2014-Oct-21 22:33N 32°37' W 117°19'2 2.3
2014-Oct-21 21:28N 32°36' W 117°16'2 2.4
2014-Oct-21 20:32N 32°35' W 117°14'0 0.0
2014-Oct-21 19:33N 32°35' W 117°14'0 0.0
2014-Oct-21 17:29N 32°35' W 117°14'0 0.1
2014-Oct-21 16:32N 32°35' W 117°14'7 6.8
2014-Oct-21 15:33N 32°35' W 117°22'7 6.1
2014-Oct-21 14:23N 32°36' W 117°14'7 8.2
2014-Oct-21 13:33N 32°43' W 117°13'1 1.2
2014-Oct-21 12:32N 32°43' W 117°11'0 0.0
2014-Oct-21 11:32N 32°43' W 117°11'0 0.0
2014-Oct-21 10:32N 32°43' W 117°11'0 0.0
2014-Oct-21 09:32N 32°43' W 117°11'0 0.0
2014-Oct-21 08:32N 32°43' W 117°11'0 0.0
2014-Oct-21 07:32N 32°43' W 117°11'0 0.0
2014-Oct-21 06:29N 32°43' W 117°11'0 0.0
2014-Oct-21 05:32N 32°43' W 117°11'0 0.0
2014-Oct-21 04:32N 32°43' W 117°11'0 0.0
2014-Oct-21 03:32N 32°43' W 117°11'0 0.0
2014-Oct-21 02:32N 32°43' W 117°11'0 0.0
2014-Oct-21 01:32N 32°43' W 117°11'3 3.4
2014-Oct-21 00:33N 32°41' W 117°14'6 2.7
2014-Oct-20 22:23N 32°35' W 117°14'0 0.0
2014-Oct-20 18:31N 32°35' W 117°14'0 0.0
2014-Oct-20 17:29N 32°35' W 117°14'0 0.3
2014-Oct-20 16:31N 32°35' W 117°14'8 7.8
2014-Oct-20 15:27N 32°30' W 117°23'1 1.2
2014-Oct-20 14:31N 32°30' W 117°24'0 0.4
2014-Oct-20 13:33N 32°30' W 117°24'1 0.5
2014-Oct-20 12:33N 32°31' W 117°24'0 0.5
2014-Oct-20 11:33N 32°31' W 117°25'1 0.5
2014-Oct-20 10:33N 32°32' W 117°25'1 0.5
2014-Oct-20 09:33N 32°32' W 117°25'1 0.5
2014-Oct-20 08:33N 32°33' W 117°25'0 0.5
2014-Oct-20 07:33N 32°33' W 117°26'1 0.6
2014-Oct-20 06:34N 32°34' W 117°26'1 0.7
2014-Oct-20 05:33N 32°34' W 117°26'1 0.8
2014-Oct-20 04:33N 32°35' W 117°27'1 0.7
2014-Oct-20 03:33N 32°36' W 117°27'1 0.8
2014-Oct-20 02:33N 32°36' W 117°28'0 0.5
2014-Oct-20 01:33N 32°37' W 117°28'10 6.7
2014-Oct-20 00:04N 32°32' W 117°18'1 1.2
2014-Oct-19 23:32N 32°33' W 117°18'1 1.1
2014-Oct-19 22:33N 32°34' W 117°19'1 1.1
2014-Oct-19 21:33N 32°34' W 117°20'1 0.8
2014-Oct-19 20:33N 32°34' W 117°21'0 0.4
2014-Oct-19 19:33N 32°34' W 117°22'0 0.5
2014-Oct-19 18:33N 32°35' W 117°22'6 5.7
2014-Oct-19 17:33N 32°37' W 117°16'4 4.0
2014-Oct-19 16:33N 32°38' W 117°11'0 0.0
2014-Oct-19 15:27N 32°38' W 117°11'0 0.0
2014-Oct-19 14:33N 32°38' W 117°11'0 0.0
2014-Oct-19 13:33N 32°38' W 117°11'0 0.0
2014-Oct-19 12:33N 32°38' W 117°11'0 0.0
2014-Oct-19 11:33N 32°38' W 117°11'0 0.0
2014-Oct-19 10:33N 32°38' W 117°11'0 0.0
2014-Oct-19 09:33N 32°38' W 117°11'0 0.0
2014-Oct-19 08:33N 32°38' W 117°11'6 6.0
2014-Oct-19 07:33N 32°35' W 117°17'7 7.2
2014-Oct-19 06:33N 32°34' W 117°26'6 6.0
2014-Oct-19 05:33N 32°29' W 117°22'1 1.2
2014-Oct-19 04:32N 32°30' W 117°22'1 1.2
2014-Oct-19 03:30N 32°31' W 117°22'1 1.3
2014-Oct-19 02:30N 32°32' W 117°23'1 1.4
2014-Oct-19 01:33N 32°34' W 117°23'1 1.2
2014-Oct-19 00:33N 32°35' W 117°24'1 1.1
2014-Oct-18 23:33N 32°36' W 117°24'1 1.1
2014-Oct-18 22:33N 32°37' W 117°25'1 1.1
2014-Oct-18 21:33N 32°38' W 117°25'1 1.0
2014-Oct-18 20:33N 32°38' W 117°26'1 0.9
2014-Oct-18 19:33N 32°39' W 117°27'1 1.1
2014-Oct-18 18:33N 32°38' W 117°26'7 7.3
2014-Oct-18 17:32N 32°32' W 117°21'1 0.7
2014-Oct-18 16:30N 32°33' W 117°21'1 0.9
2014-Oct-18 15:33N 32°34' W 117°21'3 2.6
2014-Oct-18 14:33N 32°36' W 117°19'8 7.8
2014-Oct-18 13:33N 32°42' W 117°14'2 2.4
2014-Oct-18 12:33N 32°43' W 117°11'0 0.0
2014-Oct-18 11:33N 32°43' W 117°11'0 0.0
2014-Oct-18 10:33N 32°43' W 117°11'0 0.0
2014-Oct-18 09:33N 32°43' W 117°11'0 0.0
2014-Oct-18 08:33N 32°43' W 117°11'0 0.0
2014-Oct-18 07:33N 32°43' W 117°11'0 0.0
2014-Oct-18 06:33N 32°43' W 117°11'0 0.0
2014-Oct-18 05:33N 32°43' W 117°11'0 0.0
2014-Oct-18 04:33N 32°43' W 117°11'0 0.0
2014-Oct-18 03:33N 32°43' W 117°11'5 4.9
2014-Oct-18 02:33N 32°39' W 117°13'9 8.5
2014-Oct-18 01:31N 32°32' W 117°20'2 2.3
2014-Oct-18 00:29N 32°32' W 117°23'1 1.1
2014-Oct-17 23:33N 32°33' W 117°23'1 1.0
2014-Oct-17 22:33N 32°34' W 117°23'1 0.9
2014-Oct-17 21:33N 32°34' W 117°24'1 0.9
2014-Oct-17 20:33N 32°35' W 117°24'1 0.7
2014-Oct-17 19:33N 32°36' W 117°25'1 0.6
2014-Oct-17 18:33N 32°36' W 117°25'1 0.5
2014-Oct-17 17:33N 32°37' W 117°25'1 0.6
2014-Oct-17 16:33N 32°37' W 117°26'0 0.4
2014-Oct-17 15:33N 32°37' W 117°26'0 0.3
2014-Oct-17 14:33N 32°38' W 117°27'0 0.3
2014-Oct-17 13:33N 32°38' W 117°27'0 0.3
2014-Oct-17 12:33N 32°38' W 117°27'0 0.4
2014-Oct-17 11:33N 32°39' W 117°27'0 0.4
2014-Oct-17 10:33N 32°39' W 117°27'1 0.5
2014-Oct-17 09:33N 32°40' W 117°27'1 0.5
2014-Oct-17 08:33N 32°40' W 117°28'1 0.5
2014-Oct-17 07:33N 32°40' W 117°28'1 0.6
2014-Oct-17 06:33N 32°41' W 117°28'3 2.6
2014-Oct-17 05:33N 32°38' W 117°29'9 8.8
2014-Oct-17 04:31N 32°31' W 117°23'1 1.1
2014-Oct-17 03:33N 32°32' W 117°23'1 1.2
2014-Oct-17 02:33N 32°33' W 117°23'2 2.3
2014-Oct-17 01:29N 32°34' W 117°21'7 7.4
2014-Oct-17 00:33N 32°38' W 117°14'5 0.5
2014-Oct-16 14:18N 32°43' W 117°10'0 0.0
2014-Oct-15 21:27N 32°43' W 117°10'0 0.0
2014-Oct-15 20:33N 32°43' W 117°10'2 2.5
2014-Oct-15 19:33N 32°41' W 117°08'  

Dump ship's entire track history